Nashville, TN

9:02 AM CDT en Septiembre 02, 2014 (GMT -0500)
Cumberland Gardens | Change Station
CLOSE
Current Station
Estación meteorológica personal
Location: Nashville, TN
Altura: 476 ft
Estaciones meteorológicas cercanas

Alt 476 ft 36.18 °N, 86.82 °W | Updated 36 seconds ago

Mostly Cloudy
Muy nublado
84.6 ° F
Sensación térmica 92 ° F
N
2.2
Viento Variable Viento desde Sur
Gusts 4.5 mph

Hoy
Alta -- | Baja -- ° F
--% Posibilidad de precipitaciones
Ayer
Alta -- | Baja -- ° F
Precip. -- pul
6:19 AM 7:13 PM
Cuarto creciente, 51% visible
Presión 30.04 pul
Visibilidad 10.0 Millas
Nubes Baja 6000 ft
Nubes dispersas 10000 ft
Muy nublado 20000 ft
Muy nublado 25000 ft
Índice de calor 92 ° F
Punto de rocío 74 ° F
Humedad 71%
Precipitaciones 0.00 pul
Espesor de la nieve No disponible.
UV 2 de una escala de 12
Polen 10.50 de una escala de 12
Ozono Buena
PM2.5 Moderada
Flu Activity No disponible.
METAR KBNA 021353Z 22007KT 10SM FEW060 SCT100 BKN200 BKN250 27/22 A3006 RMK AO2 SLP170 T02720217

More Conditions Fewer Conditions

Presión 30.04 pul
Visibilidad 10.0 Millas
Nubes Baja 6000 ft
Nubes dispersas 10000 ft
Muy nublado 20000 ft
Muy nublado 25000 ft
Índice de calor 92 ° F
Punto de rocío 74 ° F
Humedad 71%
Precipitaciones 0.00 pul
Espesor de la nieve No disponible.
UV 2 de una escala de 12
Polen 10.50 de una escala de 12
Ozono Buena
PM2.5 Moderada
Flu Activity No disponible.
METAR KBNA 021353Z 22007KT 10SM FEW060 SCT100 BKN200 BKN250 27/22 A3006 RMK AO2 SLP170 T02720217

More Conditions Fewer Conditions

10-Day Weather Forecast

Almanac

Astronomía

Sep. 02, 2014 Salida Puesta
Hora real 6:19 AM CDT 7:13 PM CDT
Crepúsculo civil 5:53 AM CDT 7:39 PM CDT
Crepúsculo náutico 5:22 AM CDT 8:10 PM CDT
Crepúsculo astronómico 4:50 AM CDT 8:42 PM CDT
Luna 1:50 PM CDT Sin puesta de luna
Horas de luz 13h 46m
Horas de luz
12h 53m
Tomorrow will be 2m 13s shorter.
Cuarto creciente, 51% of the Moon is Illuminated
Hoy
Cuarto creciente
Sep 8
Luna llena
Sep 15
Cuarto menguante
Sep 24
Nueva
Oct 1
Cuarto creciente

Extremos de hoy

Máximos del estado Bajos del estado

Community

WunderPhotos

Upload Photos

1,749,670 ¡fotos cargadas!

WunderBlogs® & News

Nearby

Calidad del aire

  Calidad del aire Índice AQ Contaminante
Ayer Moderada
PM2.5
Ayer Buena
OZONE
Real Moderada
PM2.5
Real Buena
OZONE
Martes Moderada
PM2.5
Martes Buena
OZONE

Grosos de nieve

Estación Profundido Altura
No tenemos constancia de nieve nueva.

Actividad de terremotos

Ciudad Distance Mag. Tiempo y dato
No hay informes recientes de la actividad sísmica.
Magnitud mínima muestra es 2,5.

Temperaturas de aguas costeras

Lugar Temperatura
Sin partes meteorológicos de las estaciones

Estaciones meteorológicas cercanas